sensor_id;sensor_type;location;lat;lon;timestamp;P1;durP1;ratioP1;P2;durP2;ratioP2
65667;SDS011;52369;52.542;13.232;2023-04-25T00:01:53;4.72;;;2.78;;
65667;SDS011;52369;52.542;13.232;2023-04-25T00:04:19;6.72;;;3.10;;
65667;SDS011;52369;52.542;13.232;2023-04-25T00:06:46;4.32;;;2.63;;
65667;SDS011;52369;52.542;13.232;2023-04-25T00:09:12;4.70;;;2.80;;
65667;SDS011;52369;52.542;13.232;2023-04-25T00:11:39;5.13;;;2.78;;
65667;SDS011;52369;52.542;13.232;2023-04-25T00:14:05;5.10;;;3.00;;
65667;SDS011;52369;52.542;13.232;2023-04-25T00:16:31;3.25;;;2.03;;
65667;SDS011;52369;52.542;13.232;2023-04-25T00:19:00;7.40;;;2.92;;
65667;SDS011;52369;52.542;13.232;2023-04-25T00:21:27;5.63;;;2.67;;
65667;SDS011;52369;52.542;13.232;2023-04-25T00:23:53;6.72;;;2.88;;
65667;SDS011;52369;52.542;13.232;2023-04-25T00:26:19;7.25;;;2.88;;
65667;SDS011;52369;52.542;13.232;2023-04-25T00:28:46;5.50;;;2.70;;
65667;SDS011;52369;52.542;13.232;2023-04-25T00:31:12;6.65;;;2.50;;
65667;SDS011;52369;52.542;13.232;2023-04-25T00:33:38;7.00;;;3.03;;
65667;SDS011;52369;52.542;13.232;2023-04-25T00:36:04;3.97;;;2.55;;
65667;SDS011;52369;52.542;13.232;2023-04-25T00:38:31;6.05;;;2.67;;
65667;SDS011;52369;52.542;13.232;2023-04-25T00:40:57;5.20;;;2.55;;
65667;SDS011;52369;52.542;13.232;2023-04-25T00:43:25;7.50;;;2.72;;
65667;SDS011;52369;52.542;13.232;2023-04-25T00:45:51;6.68;;;2.83;;
65667;SDS011;52369;52.542;13.232;2023-04-25T00:48:18;6.97;;;2.80;;
65667;SDS011;52369;52.542;13.232;2023-04-25T00:50:47;6.47;;;3.00;;
65667;SDS011;52369;52.542;13.232;2023-04-25T00:53:15;7.93;;;2.90;;
65667;SDS011;52369;52.542;13.232;2023-04-25T00:55:41;5.30;;;2.65;;
65667;SDS011;52369;52.542;13.232;2023-04-25T00:58:07;5.30;;;2.35;;
65667;SDS011;52369;52.542;13.232;2023-04-25T01:00:33;9.10;;;2.83;;
65667;SDS011;52369;52.542;13.232;2023-04-25T01:02:59;7.53;;;3.10;;
65667;SDS011;52369;52.542;13.232;2023-04-25T01:05:27;6.53;;;2.97;;
65667;SDS011;52369;52.542;13.232;2023-04-25T01:07:53;6.50;;;3.10;;
65667;SDS011;52369;52.542;13.232;2023-04-25T01:10:20;6.38;;;3.22;;
65667;SDS011;52369;52.542;13.232;2023-04-25T01:12:46;7.13;;;2.83;;
65667;SDS011;52369;52.542;13.232;2023-04-25T01:15:12;9.48;;;3.30;;
65667;SDS011;52369;52.542;13.232;2023-04-25T01:17:38;6.82;;;3.10;;
65667;SDS011;52369;52.542;13.232;2023-04-25T01:20:06;6.30;;;3.00;;
65667;SDS011;52369;52.542;13.232;2023-04-25T01:22:34;8.68;;;3.10;;
65667;SDS011;52369;52.542;13.232;2023-04-25T01:25:00;9.75;;;3.20;;
65667;SDS011;52369;52.542;13.232;2023-04-25T01:27:27;7.22;;;2.63;;
65667;SDS011;52369;52.542;13.232;2023-04-25T01:29:54;8.52;;;3.22;;
65667;SDS011;52369;52.542;13.232;2023-04-25T01:32:21;6.28;;;2.95;;
65667;SDS011;52369;52.542;13.232;2023-04-25T01:34:47;8.32;;;3.25;;
65667;SDS011;52369;52.542;13.232;2023-04-25T01:37:13;6.90;;;3.08;;
65667;SDS011;52369;52.542;13.232;2023-04-25T01:39:40;6.75;;;3.30;;
65667;SDS011;52369;52.542;13.232;2023-04-25T01:42:06;10.00;;;3.15;;
65667;SDS011;52369;52.542;13.232;2023-04-25T01:44:32;7.53;;;3.17;;
65667;SDS011;52369;52.542;13.232;2023-04-25T01:46:58;5.05;;;2.85;;
65667;SDS011;52369;52.542;13.232;2023-04-25T01:49:24;5.88;;;3.05;;
65667;SDS011;52369;52.542;13.232;2023-04-25T01:51:50;9.13;;;3.33;;
65667;SDS011;52369;52.542;13.232;2023-04-25T01:54:16;10.18;;;3.45;;
65667;SDS011;52369;52.542;13.232;2023-04-25T01:56:42;5.55;;;3.40;;
65667;SDS011;52369;52.542;13.232;2023-04-25T01:59:08;7.55;;;3.53;;
65667;SDS011;52369;52.542;13.232;2023-04-25T02:01:35;5.90;;;3.22;;
65667;SDS011;52369;52.542;13.232;2023-04-25T02:04:01;8.82;;;3.92;;
65667;SDS011;52369;52.542;13.232;2023-04-25T02:06:27;6.97;;;3.22;;
65667;SDS011;52369;52.542;13.232;2023-04-25T02:08:53;6.63;;;3.35;;
65667;SDS011;52369;52.542;13.232;2023-04-25T02:11:19;5.22;;;3.20;;
65667;SDS011;52369;52.542;13.232;2023-04-25T02:13:45;8.20;;;3.33;;
65667;SDS011;52369;52.542;13.232;2023-04-25T02:16:11;7.63;;;3.67;;
65667;SDS011;52369;52.542;13.232;2023-04-25T02:18:38;9.75;;;3.65;;
65667;SDS011;52369;52.542;13.232;2023-04-25T02:21:04;6.20;;;3.55;;
65667;SDS011;52369;52.542;13.232;2023-04-25T02:23:30;5.93;;;3.45;;
65667;SDS011;52369;52.542;13.232;2023-04-25T02:25:56;5.45;;;3.40;;
65667;SDS011;52369;52.542;13.232;2023-04-25T02:28:23;6.53;;;3.05;;
65667;SDS011;52369;52.542;13.232;2023-04-25T02:30:50;7.43;;;3.75;;
65667;SDS011;52369;52.542;13.232;2023-04-25T02:33:16;7.60;;;4.00;;
65667;SDS011;52369;52.542;13.232;2023-04-25T02:35:42;9.38;;;3.60;;
65667;SDS011;52369;52.542;13.232;2023-04-25T02:38:08;7.70;;;3.50;;
65667;SDS011;52369;52.542;13.232;2023-04-25T02:40:34;8.27;;;3.80;;
65667;SDS011;52369;52.542;13.232;2023-04-25T02:43:00;9.40;;;3.80;;
65667;SDS011;52369;52.542;13.232;2023-04-25T02:45:26;5.95;;;3.88;;
65667;SDS011;52369;52.542;13.232;2023-04-25T02:47:52;8.85;;;3.90;;
65667;SDS011;52369;52.542;13.232;2023-04-25T02:50:18;7.47;;;3.60;;
65667;SDS011;52369;52.542;13.232;2023-04-25T02:52:44;11.02;;;4.25;;
65667;SDS011;52369;52.542;13.232;2023-04-25T02:55:11;8.60;;;4.20;;
65667;SDS011;52369;52.542;13.232;2023-04-25T02:57:38;9.55;;;3.90;;
65667;SDS011;52369;52.542;13.232;2023-04-25T03:00:04;8.95;;;3.83;;
65667;SDS011;52369;52.542;13.232;2023-04-25T03:02:32;10.40;;;4.07;;
65667;SDS011;52369;52.542;13.232;2023-04-25T03:04:58;6.60;;;3.78;;
65667;SDS011;52369;52.542;13.232;2023-04-25T03:07:24;6.85;;;3.45;;
65667;SDS011;52369;52.542;13.232;2023-04-25T03:09:50;10.23;;;4.07;;
65667;SDS011;52369;52.542;13.232;2023-04-25T03:12:16;10.27;;;4.10;;
65667;SDS011;52369;52.542;13.232;2023-04-25T03:14:42;8.18;;;3.83;;
65667;SDS011;52369;52.542;13.232;2023-04-25T03:17:08;9.25;;;4.80;;
65667;SDS011;52369;52.542;13.232;2023-04-25T03:19:35;10.40;;;4.30;;
65667;SDS011;52369;52.542;13.232;2023-04-25T03:22:01;9.05;;;4.75;;
65667;SDS011;52369;52.542;13.232;2023-04-25T03:24:27;9.07;;;4.47;;
65667;SDS011;52369;52.542;13.232;2023-04-25T03:26:53;9.43;;;4.05;;
65667;SDS011;52369;52.542;13.232;2023-04-25T03:29:19;9.35;;;4.43;;
65667;SDS011;52369;52.542;13.232;2023-04-25T03:31:49;10.25;;;3.95;;
65667;SDS011;52369;52.542;13.232;2023-04-25T03:34:15;9.05;;;3.92;;
65667;SDS011;52369;52.542;13.232;2023-04-25T03:36:41;9.30;;;4.03;;
65667;SDS011;52369;52.542;13.232;2023-04-25T03:39:07;8.38;;;4.18;;
65667;SDS011;52369;52.542;13.232;2023-04-25T03:41:33;10.30;;;4.15;;
65667;SDS011;52369;52.542;13.232;2023-04-25T03:43:59;9.57;;;4.13;;
65667;SDS011;52369;52.542;13.232;2023-04-25T03:46:25;9.88;;;4.40;;
65667;SDS011;52369;52.542;13.232;2023-04-25T03:48:51;7.88;;;3.97;;
65667;SDS011;52369;52.542;13.232;2023-04-25T03:51:17;8.45;;;3.72;;
65667;SDS011;52369;52.542;13.232;2023-04-25T03:53:43;10.50;;;4.10;;
65667;SDS011;52369;52.542;13.232;2023-04-25T03:56:09;9.73;;;3.70;;
65667;SDS011;52369;52.542;13.232;2023-04-25T03:58:35;8.98;;;4.38;;
65667;SDS011;52369;52.542;13.232;2023-04-25T04:01:02;10.57;;;3.88;;
65667;SDS011;52369;52.542;13.232;2023-04-25T04:03:32;10.35;;;4.07;;
65667;SDS011;52369;52.542;13.232;2023-04-25T04:05:58;9.25;;;3.38;;
65667;SDS011;52369;52.542;13.232;2023-04-25T04:08:24;10.05;;;4.50;;
65667;SDS011;52369;52.542;13.232;2023-04-25T04:10:50;12.07;;;4.60;;
65667;SDS011;52369;52.542;13.232;2023-04-25T04:13:16;9.73;;;3.92;;
65667;SDS011;52369;52.542;13.232;2023-04-25T04:15:42;12.50;;;4.47;;
65667;SDS011;52369;52.542;13.232;2023-04-25T04:18:08;7.80;;;3.85;;
65667;SDS011;52369;52.542;13.232;2023-04-25T04:20:35;7.10;;;3.65;;
65667;SDS011;52369;52.542;13.232;2023-04-25T04:23:01;8.07;;;3.90;;
65667;SDS011;52369;52.542;13.232;2023-04-25T04:25:28;9.68;;;4.07;;
65667;SDS011;52369;52.542;13.232;2023-04-25T04:27:55;11.43;;;4.30;;
65667;SDS011;52369;52.542;13.232;2023-04-25T04:30:24;12.73;;;4.53;;
65667;SDS011;52369;52.542;13.232;2023-04-25T04:32:51;9.82;;;3.92;;
65667;SDS011;52369;52.542;13.232;2023-04-25T04:35:17;11.00;;;4.80;;
65667;SDS011;52369;52.542;13.232;2023-04-25T04:37:43;8.50;;;4.10;;
65667;SDS011;52369;52.542;13.232;2023-04-25T04:40:10;9.60;;;4.22;;
65667;SDS011;52369;52.542;13.232;2023-04-25T04:42:36;9.05;;;3.85;;
65667;SDS011;52369;52.542;13.232;2023-04-25T04:45:03;10.18;;;4.30;;
65667;SDS011;52369;52.542;13.232;2023-04-25T04:47:29;8.82;;;4.30;;
65667;SDS011;52369;52.542;13.232;2023-04-25T04:49:57;7.28;;;3.55;;
65667;SDS011;52369;52.542;13.232;2023-04-25T04:52:23;8.90;;;3.42;;
65667;SDS011;52369;52.542;13.232;2023-04-25T04:54:49;7.75;;;4.10;;
65667;SDS011;52369;52.542;13.232;2023-04-25T04:57:15;10.88;;;3.90;;
65667;SDS011;52369;52.542;13.232;2023-04-25T04:59:44;10.35;;;3.72;;
65667;SDS011;52369;52.542;13.232;2023-04-25T05:02:10;7.75;;;3.63;;
65667;SDS011;52369;52.542;13.232;2023-04-25T05:04:36;9.57;;;3.92;;
65667;SDS011;52369;52.542;13.232;2023-04-25T05:07:02;9.88;;;4.28;;
65667;SDS011;52369;52.542;13.232;2023-04-25T05:09:28;8.02;;;4.00;;
65667;SDS011;52369;52.542;13.232;2023-04-25T05:11:55;9.40;;;3.53;;
65667;SDS011;52369;52.542;13.232;2023-04-25T05:14:21;8.07;;;3.80;;
65667;SDS011;52369;52.542;13.232;2023-04-25T05:16:48;8.90;;;3.92;;
65667;SDS011;52369;52.542;13.232;2023-04-25T05:19:14;9.98;;;4.20;;
65667;SDS011;52369;52.542;13.232;2023-04-25T05:21:40;9.63;;;3.92;;
65667;SDS011;52369;52.542;13.232;2023-04-25T05:24:08;7.45;;;3.60;;
65667;SDS011;52369;52.542;13.232;2023-04-25T05:26:34;11.10;;;4.63;;
65667;SDS011;52369;52.542;13.232;2023-04-25T05:29:00;9.18;;;3.95;;
65667;SDS011;52369;52.542;13.232;2023-04-25T05:31:26;10.60;;;4.75;;
65667;SDS011;52369;52.542;13.232;2023-04-25T05:33:52;10.13;;;3.90;;
65667;SDS011;52369;52.542;13.232;2023-04-25T05:36:18;12.73;;;4.38;;
65667;SDS011;52369;52.542;13.232;2023-04-25T05:38:44;8.63;;;4.55;;
65667;SDS011;52369;52.542;13.232;2023-04-25T05:41:11;12.10;;;4.55;;
65667;SDS011;52369;52.542;13.232;2023-04-25T05:43:37;13.00;;;4.28;;
65667;SDS011;52369;52.542;13.232;2023-04-25T05:46:03;8.45;;;4.43;;
65667;SDS011;52369;52.542;13.232;2023-04-25T05:48:29;9.93;;;4.20;;
65667;SDS011;52369;52.542;13.232;2023-04-25T05:50:55;11.73;;;4.75;;
65667;SDS011;52369;52.542;13.232;2023-04-25T05:53:21;9.80;;;4.53;;
65667;SDS011;52369;52.542;13.232;2023-04-25T05:55:47;9.77;;;4.97;;
65667;SDS011;52369;52.542;13.232;2023-04-25T05:58:13;11.68;;;4.93;;
65667;SDS011;52369;52.542;13.232;2023-04-25T06:00:39;14.25;;;5.30;;
65667;SDS011;52369;52.542;13.232;2023-04-25T06:03:06;8.95;;;4.53;;
65667;SDS011;52369;52.542;13.232;2023-04-25T06:05:34;9.25;;;4.53;;
65667;SDS011;52369;52.542;13.232;2023-04-25T06:08:00;11.45;;;4.32;;
65667;SDS011;52369;52.542;13.232;2023-04-25T06:10:26;10.32;;;4.30;;
65667;SDS011;52369;52.542;13.232;2023-04-25T06:12:53;11.82;;;4.97;;
65667;SDS011;52369;52.542;13.232;2023-04-25T06:15:19;10.60;;;5.30;;
65667;SDS011;52369;52.542;13.232;2023-04-25T06:17:45;10.43;;;4.80;;
65667;SDS011;52369;52.542;13.232;2023-04-25T06:20:11;7.95;;;4.45;;
65667;SDS011;52369;52.542;13.232;2023-04-25T06:22:37;10.98;;;4.55;;
65667;SDS011;52369;52.542;13.232;2023-04-25T06:25:03;10.68;;;4.88;;
65667;SDS011;52369;52.542;13.232;2023-04-25T06:27:29;8.93;;;4.50;;
65667;SDS011;52369;52.542;13.232;2023-04-25T06:29:55;10.93;;;5.05;;
65667;SDS011;52369;52.542;13.232;2023-04-25T06:32:21;10.80;;;4.55;;
65667;SDS011;52369;52.542;13.232;2023-04-25T06:34:47;10.02;;;4.55;;
65667;SDS011;52369;52.542;13.232;2023-04-25T06:37:13;11.60;;;4.70;;
65667;SDS011;52369;52.542;13.232;2023-04-25T06:39:39;10.15;;;4.55;;
65667;SDS011;52369;52.542;13.232;2023-04-25T06:42:05;12.02;;;5.00;;
65667;SDS011;52369;52.542;13.232;2023-04-25T06:44:31;9.32;;;4.68;;
65667;SDS011;52369;52.542;13.232;2023-04-25T06:46:57;7.03;;;4.00;;
65667;SDS011;52369;52.542;13.232;2023-04-25T06:49:23;8.65;;;4.32;;
65667;SDS011;52369;52.542;13.232;2023-04-25T06:51:49;9.73;;;3.95;;
65667;SDS011;52369;52.542;13.232;2023-04-25T06:54:15;12.93;;;5.18;;
65667;SDS011;52369;52.542;13.232;2023-04-25T06:56:42;10.63;;;4.65;;
65667;SDS011;52369;52.542;13.232;2023-04-25T06:59:08;9.23;;;4.30;;
65667;SDS011;52369;52.542;13.232;2023-04-25T07:01:34;9.43;;;4.00;;
65667;SDS011;52369;52.542;13.232;2023-04-25T07:04:00;10.82;;;5.00;;
65667;SDS011;52369;52.542;13.232;2023-04-25T07:06:26;10.27;;;4.10;;
65667;SDS011;52369;52.542;13.232;2023-04-25T07:08:53;9.40;;;4.35;;
65667;SDS011;52369;52.542;13.232;2023-04-25T07:11:19;9.45;;;4.80;;
65667;SDS011;52369;52.542;13.232;2023-04-25T07:13:45;8.95;;;4.30;;
65667;SDS011;52369;52.542;13.232;2023-04-25T07:16:11;8.40;;;4.03;;
65667;SDS011;52369;52.542;13.232;2023-04-25T07:18:37;9.40;;;4.18;;
65667;SDS011;52369;52.542;13.232;2023-04-25T07:21:04;11.02;;;4.32;;
65667;SDS011;52369;52.542;13.232;2023-04-25T07:23:30;12.73;;;5.35;;
65667;SDS011;52369;52.542;13.232;2023-04-25T07:25:56;10.57;;;3.78;;
65667;SDS011;52369;52.542;13.232;2023-04-25T07:28:22;12.32;;;4.40;;
65667;SDS011;52369;52.542;13.232;2023-04-25T07:30:48;12.73;;;4.07;;
65667;SDS011;52369;52.542;13.232;2023-04-25T07:33:14;13.75;;;4.47;;
65667;SDS011;52369;52.542;13.232;2023-04-25T07:35:40;12.38;;;3.97;;
65667;SDS011;52369;52.542;13.232;2023-04-25T07:38:06;16.30;;;5.00;;
65667;SDS011;52369;52.542;13.232;2023-04-25T07:40:33;17.67;;;5.18;;
65667;SDS011;52369;52.542;13.232;2023-04-25T07:43:00;12.75;;;4.40;;
65667;SDS011;52369;52.542;13.232;2023-04-25T07:45:26;11.93;;;3.83;;
65667;SDS011;52369;52.542;13.232;2023-04-25T07:47:52;14.80;;;3.78;;
65667;SDS011;52369;52.542;13.232;2023-04-25T07:50:18;15.52;;;4.90;;
65667;SDS011;52369;52.542;13.232;2023-04-25T07:52:44;17.92;;;3.85;;
65667;SDS011;52369;52.542;13.232;2023-04-25T07:55:10;12.88;;;4.40;;
65667;SDS011;52369;52.542;13.232;2023-04-25T07:57:37;11.73;;;4.07;;
65667;SDS011;52369;52.542;13.232;2023-04-25T08:00:03;15.75;;;3.88;;
65667;SDS011;52369;52.542;13.232;2023-04-25T08:02:30;17.13;;;4.13;;
65667;SDS011;52369;52.542;13.232;2023-04-25T08:04:56;14.02;;;3.55;;
65667;SDS011;52369;52.542;13.232;2023-04-25T08:07:22;13.13;;;4.45;;
65667;SDS011;52369;52.542;13.232;2023-04-25T08:09:48;19.58;;;4.10;;
65667;SDS011;52369;52.542;13.232;2023-04-25T08:12:14;11.18;;;3.55;;
65667;SDS011;52369;52.542;13.232;2023-04-25T08:14:40;17.05;;;4.78;;
65667;SDS011;52369;52.542;13.232;2023-04-25T08:17:06;13.13;;;4.68;;
65667;SDS011;52369;52.542;13.232;2023-04-25T08:19:32;12.48;;;4.10;;
65667;SDS011;52369;52.542;13.232;2023-04-25T08:21:58;14.65;;;3.70;;
65667;SDS011;52369;52.542;13.232;2023-04-25T08:24:24;13.43;;;4.30;;
65667;SDS011;52369;52.542;13.232;2023-04-25T08:26:51;13.82;;;4.55;;
65667;SDS011;52369;52.542;13.232;2023-04-25T08:29:17;11.32;;;3.25;;
65667;SDS011;52369;52.542;13.232;2023-04-25T08:31:43;15.00;;;3.70;;
65667;SDS011;52369;52.542;13.232;2023-04-25T08:34:09;9.25;;;2.58;;
65667;SDS011;52369;52.542;13.232;2023-04-25T08:36:36;13.40;;;3.30;;
65667;SDS011;52369;52.542;13.232;2023-04-25T08:39:02;13.40;;;4.15;;
65667;SDS011;52369;52.542;13.232;2023-04-25T08:41:28;16.02;;;4.40;;
65667;SDS011;52369;52.542;13.232;2023-04-25T08:43:54;12.63;;;3.28;;
65667;SDS011;52369;52.542;13.232;2023-04-25T08:46:23;9.73;;;3.10;;
65667;SDS011;52369;52.542;13.232;2023-04-25T08:48:50;9.32;;;3.30;;
65667;SDS011;52369;52.542;13.232;2023-04-25T08:51:21;14.60;;;4.57;;
65667;SDS011;52369;52.542;13.232;2023-04-25T08:53:52;11.40;;;3.90;;
65667;SDS011;52369;52.542;13.232;2023-04-25T08:56:19;8.85;;;2.90;;
65667;SDS011;52369;52.542;13.232;2023-04-25T08:58:50;12.48;;;3.80;;
65667;SDS011;52369;52.542;13.232;2023-04-25T09:01:16;12.00;;;3.33;;
65667;SDS011;52369;52.542;13.232;2023-04-25T09:03:43;14.52;;;3.63;;
65667;SDS011;52369;52.542;13.232;2023-04-25T09:06:12;12.35;;;3.00;;
65667;SDS011;52369;52.542;13.232;2023-04-25T09:08:41;12.98;;;2.95;;
65667;SDS011;52369;52.542;13.232;2023-04-25T09:11:07;11.38;;;3.22;;
65667;SDS011;52369;52.542;13.232;2023-04-25T09:13:33;8.85;;;3.25;;
65667;SDS011;52369;52.542;13.232;2023-04-25T09:15:59;12.70;;;2.63;;
65667;SDS011;52369;52.542;13.232;2023-04-25T09:18:28;7.88;;;2.83;;
65667;SDS011;52369;52.542;13.232;2023-04-25T09:20:56;11.07;;;2.90;;
65667;SDS011;52369;52.542;13.232;2023-04-25T09:23:23;9.15;;;2.72;;
65667;SDS011;52369;52.542;13.232;2023-04-25T09:25:51;8.95;;;3.13;;
65667;SDS011;52369;52.542;13.232;2023-04-25T09:28:27;16.25;;;2.80;;
65667;SDS011;52369;52.542;13.232;2023-04-25T09:30:56;9.10;;;2.65;;
65667;SDS011;52369;52.542;13.232;2023-04-25T09:33:29;9.18;;;3.15;;
65667;SDS011;52369;52.542;13.232;2023-04-25T09:36:01;10.48;;;2.63;;
65667;SDS011;52369;52.542;13.232;2023-04-25T09:38:27;6.38;;;2.30;;
65667;SDS011;52369;52.542;13.232;2023-04-25T09:40:55;10.55;;;2.80;;
65667;SDS011;52369;52.542;13.232;2023-04-25T09:43:22;11.68;;;3.72;;
65667;SDS011;52369;52.542;13.232;2023-04-25T09:45:48;8.48;;;2.75;;
65667;SDS011;52369;52.542;13.232;2023-04-25T09:48:17;11.05;;;2.63;;
65667;SDS011;52369;52.542;13.232;2023-04-25T09:50:44;8.98;;;2.80;;
65667;SDS011;52369;52.542;13.232;2023-04-25T09:53:10;14.43;;;4.05;;
65667;SDS011;52369;52.542;13.232;2023-04-25T09:55:36;12.50;;;3.40;;
65667;SDS011;52369;52.542;13.232;2023-04-25T09:58:04;12.73;;;3.13;;
65667;SDS011;52369;52.542;13.232;2023-04-25T10:00:32;7.28;;;2.40;;
65667;SDS011;52369;52.542;13.232;2023-04-25T10:02:59;10.05;;;2.40;;
65667;SDS011;52369;52.542;13.232;2023-04-25T10:05:27;10.27;;;3.13;;
65667;SDS011;52369;52.542;13.232;2023-04-25T10:07:54;9.63;;;2.83;;
65667;SDS011;52369;52.542;13.232;2023-04-25T10:10:21;9.95;;;2.80;;
65667;SDS011;52369;52.542;13.232;2023-04-25T10:12:50;10.73;;;2.63;;
65667;SDS011;52369;52.542;13.232;2023-04-25T10:15:17;8.77;;;2.72;;
65667;SDS011;52369;52.542;13.232;2023-04-25T10:17:43;13.55;;;3.70;;
65667;SDS011;52369;52.542;13.232;2023-04-25T10:20:09;8.65;;;2.63;;
65667;SDS011;52369;52.542;13.232;2023-04-25T10:22:41;10.25;;;3.05;;
65667;SDS011;52369;52.542;13.232;2023-04-25T10:25:07;12.95;;;2.47;;
65667;SDS011;52369;52.542;13.232;2023-04-25T10:27:34;6.15;;;2.08;;
65667;SDS011;52369;52.542;13.232;2023-04-25T10:30:03;10.63;;;2.53;;
65667;SDS011;52369;52.542;13.232;2023-04-25T10:32:32;7.03;;;2.40;;
65667;SDS011;52369;52.542;13.232;2023-04-25T10:35:04;8.25;;;2.63;;
65667;SDS011;52369;52.542;13.232;2023-04-25T10:37:35;9.02;;;2.90;;
65667;SDS011;52369;52.542;13.232;2023-04-25T10:40:07;9.90;;;2.70;;
65667;SDS011;52369;52.542;13.232;2023-04-25T10:42:34;6.32;;;2.20;;
65667;SDS011;52369;52.542;13.232;2023-04-25T10:45:06;10.23;;;3.00;;
65667;SDS011;52369;52.542;13.232;2023-04-25T10:47:36;10.95;;;3.30;;
65667;SDS011;52369;52.542;13.232;2023-04-25T10:50:05;9.65;;;2.40;;
65667;SDS011;52369;52.542;13.232;2023-04-25T10:52:33;8.73;;;3.20;;
65667;SDS011;52369;52.542;13.232;2023-04-25T10:54:59;10.73;;;2.78;;
65667;SDS011;52369;52.542;13.232;2023-04-25T10:57:46;8.85;;;2.08;;
65667;SDS011;52369;52.542;13.232;2023-04-25T11:00:18;6.13;;;2.80;;
65667;SDS011;52369;52.542;13.232;2023-04-25T11:05:22;10.18;;;2.70;;
65667;SDS011;52369;52.542;13.232;2023-04-25T11:07:49;10.10;;;3.42;;
65667;SDS011;52369;52.542;13.232;2023-04-25T11:10:16;9.63;;;3.22;;
65667;SDS011;52369;52.542;13.232;2023-04-25T11:12:43;11.23;;;3.55;;
65667;SDS011;52369;52.542;13.232;2023-04-25T11:15:10;9.48;;;3.08;;
65667;SDS011;52369;52.542;13.232;2023-04-25T11:17:36;7.13;;;2.80;;
65667;SDS011;52369;52.542;13.232;2023-04-25T11:20:04;5.65;;;1.98;;
65667;SDS011;52369;52.542;13.232;2023-04-25T11:22:37;6.72;;;2.47;;
65667;SDS011;52369;52.542;13.232;2023-04-25T11:25:06;12.32;;;2.60;;
65667;SDS011;52369;52.542;13.232;2023-04-25T11:27:32;6.18;;;2.25;;
65667;SDS011;52369;52.542;13.232;2023-04-25T11:30:09;6.95;;;2.03;;
65667;SDS011;52369;52.542;13.232;2023-04-25T11:32:35;9.32;;;2.33;;
65667;SDS011;52369;52.542;13.232;2023-04-25T11:35:01;10.82;;;2.90;;
65667;SDS011;52369;52.542;13.232;2023-04-25T11:37:28;11.18;;;2.42;;
65667;SDS011;52369;52.542;13.232;2023-04-25T11:39:54;8.88;;;2.10;;
65667;SDS011;52369;52.542;13.232;2023-04-25T11:42:20;5.18;;;2.05;;
65667;SDS011;52369;52.542;13.232;2023-04-25T11:44:46;6.45;;;2.72;;
65667;SDS011;52369;52.542;13.232;2023-04-25T11:47:12;8.38;;;2.78;;
65667;SDS011;52369;52.542;13.232;2023-04-25T11:49:38;7.53;;;2.67;;
65667;SDS011;52369;52.542;13.232;2023-04-25T11:52:06;17.05;;;2.80;;
65667;SDS011;52369;52.542;13.232;2023-04-25T11:54:34;10.85;;;3.75;;
65667;SDS011;52369;52.542;13.232;2023-04-25T11:57:00;6.97;;;2.70;;
65667;SDS011;52369;52.542;13.232;2023-04-25T11:59:26;9.75;;;3.30;;
65667;SDS011;52369;52.542;13.232;2023-04-25T12:01:52;10.57;;;3.25;;
65667;SDS011;52369;52.542;13.232;2023-04-25T12:06:45;9.38;;;2.95;;
65667;SDS011;52369;52.542;13.232;2023-04-25T12:09:13;8.60;;;2.95;;
65667;SDS011;52369;52.542;13.232;2023-04-25T12:14:20;4.50;;;2.20;;
65667;SDS011;52369;52.542;13.232;2023-04-25T12:16:48;4.20;;;2.05;;
65667;SDS011;52369;52.542;13.232;2023-04-25T12:19:16;9.18;;;2.75;;
65667;SDS011;52369;52.542;13.232;2023-04-25T12:21:43;7.53;;;2.45;;
65667;SDS011;52369;52.542;13.232;2023-04-25T12:24:09;8.38;;;2.45;;
65667;SDS011;52369;52.542;13.232;2023-04-25T12:29:33;9.85;;;2.17;;
65667;SDS011;52369;52.542;13.232;2023-04-25T12:31:59;6.57;;;2.55;;
65667;SDS011;52369;52.542;13.232;2023-04-25T12:34:27;7.97;;;2.67;;
65667;SDS011;52369;52.542;13.232;2023-04-25T12:36:54;4.53;;;2.22;;
65667;SDS011;52369;52.542;13.232;2023-04-25T12:39:22;8.93;;;2.58;;
65667;SDS011;52369;52.542;13.232;2023-04-25T12:41:49;7.45;;;2.40;;
65667;SDS011;52369;52.542;13.232;2023-04-25T12:44:15;8.63;;;2.65;;
65667;SDS011;52369;52.542;13.232;2023-04-25T12:46:42;11.10;;;2.55;;
65667;SDS011;52369;52.542;13.232;2023-04-25T12:49:08;12.27;;;3.10;;
65667;SDS011;52369;52.542;13.232;2023-04-25T12:51:34;6.80;;;2.67;;
65667;SDS011;52369;52.542;13.232;2023-04-25T12:54:01;6.32;;;2.35;;
65667;SDS011;52369;52.542;13.232;2023-04-25T12:56:27;6.03;;;2.08;;
65667;SDS011;52369;52.542;13.232;2023-04-25T12:58:53;7.20;;;2.08;;
65667;SDS011;52369;52.542;13.232;2023-04-25T13:01:22;6.22;;;2.38;;
65667;SDS011;52369;52.542;13.232;2023-04-25T13:03:49;12.93;;;2.38;;
65667;SDS011;52369;52.542;13.232;2023-04-25T13:06:15;6.78;;;2.03;;
65667;SDS011;52369;52.542;13.232;2023-04-25T13:08:41;7.03;;;2.30;;
65667;SDS011;52369;52.542;13.232;2023-04-25T13:11:08;3.25;;;1.20;;
65667;SDS011;52369;52.542;13.232;2023-04-25T13:13:34;6.65;;;2.17;;
65667;SDS011;52369;52.542;13.232;2023-04-25T13:16:03;4.38;;;1.80;;
65667;SDS011;52369;52.542;13.232;2023-04-25T13:18:30;3.95;;;1.35;;
65667;SDS011;52369;52.542;13.232;2023-04-25T13:20:56;5.35;;;1.98;;
65667;SDS011;52369;52.542;13.232;2023-04-25T13:23:24;5.47;;;1.80;;
65667;SDS011;52369;52.542;13.232;2023-04-25T13:25:51;9.95;;;2.42;;
65667;SDS011;52369;52.542;13.232;2023-04-25T13:28:17;3.97;;;1.80;;
65667;SDS011;52369;52.542;13.232;2023-04-25T13:30:43;10.70;;;3.53;;
65667;SDS011;52369;52.542;13.232;2023-04-25T13:33:09;9.20;;;2.50;;
65667;SDS011;52369;52.542;13.232;2023-04-25T13:35:36;6.70;;;2.15;;
65667;SDS011;52369;52.542;13.232;2023-04-25T13:38:02;6.65;;;2.30;;
65667;SDS011;52369;52.542;13.232;2023-04-25T13:40:28;7.20;;;2.85;;
65667;SDS011;52369;52.542;13.232;2023-04-25T13:42:54;6.75;;;2.22;;
65667;SDS011;52369;52.542;13.232;2023-04-25T13:45:21;8.27;;;2.72;;
65667;SDS011;52369;52.542;13.232;2023-04-25T13:47:47;8.10;;;2.63;;
65667;SDS011;52369;52.542;13.232;2023-04-25T13:50:13;5.95;;;1.95;;
65667;SDS011;52369;52.542;13.232;2023-04-25T13:52:40;7.22;;;2.10;;
65667;SDS011;52369;52.542;13.232;2023-04-25T13:55:07;4.25;;;1.90;;
65667;SDS011;52369;52.542;13.232;2023-04-25T13:57:33;6.00;;;1.63;;
65667;SDS011;52369;52.542;13.232;2023-04-25T14:00:00;10.00;;;2.40;;
65667;SDS011;52369;52.542;13.232;2023-04-25T14:02:31;6.85;;;1.92;;
65667;SDS011;52369;52.542;13.232;2023-04-25T14:04:57;7.50;;;3.13;;
65667;SDS011;52369;52.542;13.232;2023-04-25T14:07:23;8.77;;;2.40;;
65667;SDS011;52369;52.542;13.232;2023-04-25T14:09:49;7.43;;;2.83;;
65667;SDS011;52369;52.542;13.232;2023-04-25T14:12:15;6.82;;;2.33;;
65667;SDS011;52369;52.542;13.232;2023-04-25T14:14:42;5.07;;;2.00;;
65667;SDS011;52369;52.542;13.232;2023-04-25T14:17:08;7.68;;;2.00;;
65667;SDS011;52369;52.542;13.232;2023-04-25T14:19:35;6.50;;;1.92;;
65667;SDS011;52369;52.542;13.232;2023-04-25T14:22:02;8.55;;;2.42;;
65667;SDS011;52369;52.542;13.232;2023-04-25T14:24:28;5.97;;;2.25;;
65667;SDS011;52369;52.542;13.232;2023-04-25T14:26:54;4.53;;;1.75;;
65667;SDS011;52369;52.542;13.232;2023-04-25T14:29:20;7.57;;;1.98;;
65667;SDS011;52369;52.542;13.232;2023-04-25T14:31:46;6.80;;;1.90;;
65667;SDS011;52369;52.542;13.232;2023-04-25T14:34:12;8.38;;;2.58;;
65667;SDS011;52369;52.542;13.232;2023-04-25T14:36:39;6.07;;;1.83;;
65667;SDS011;52369;52.542;13.232;2023-04-25T14:39:05;6.25;;;2.38;;